createdAt,value
2023-04-20T00:01:40.552Z,7.80
2023-04-20T00:04:12.702Z,7.76
2023-04-20T00:06:45.981Z,7.70
2023-04-20T00:09:18.236Z,7.65
2023-04-20T00:11:50.976Z,7.63
2023-04-20T00:14:23.155Z,7.61
2023-04-20T00:16:57.738Z,7.62
2023-04-20T00:19:33.341Z,7.60
2023-04-20T00:22:05.735Z,7.58
2023-04-20T00:24:37.799Z,7.57
2023-04-20T00:27:11.011Z,7.58
2023-04-20T00:29:43.269Z,7.58
2023-04-20T00:32:15.735Z,7.56
2023-04-20T00:34:47.712Z,7.52
2023-04-20T00:37:19.938Z,7.49
2023-04-20T00:39:51.997Z,7.49
2023-04-20T00:42:24.170Z,7.52
2023-04-20T00:44:57.307Z,7.55
2023-04-20T00:47:31.646Z,7.58
2023-04-20T00:50:04.033Z,7.60
2023-04-20T00:52:37.094Z,7.64
2023-04-20T00:55:10.744Z,7.69
2023-04-20T00:57:44.655Z,7.72
2023-04-20T01:00:17.950Z,7.75
2023-04-20T01:02:52.670Z,7.78
2023-04-20T01:05:26.236Z,7.81
2023-04-20T01:08:01.136Z,7.83
2023-04-20T01:10:34.920Z,7.83
2023-04-20T01:13:07.422Z,7.83
2023-04-20T01:15:39.607Z,7.83
2023-04-20T01:18:12.309Z,7.84
2023-04-20T01:20:44.941Z,7.87
2023-04-20T01:23:17.052Z,7.89
2023-04-20T01:25:49.683Z,7.92
2023-04-20T01:28:22.097Z,7.94
2023-04-20T01:30:54.192Z,7.97
2023-04-20T01:33:27.220Z,8.01
2023-04-20T01:35:59.669Z,8.04
2023-04-20T01:38:35.238Z,8.04
2023-04-20T01:41:09.457Z,8.05
2023-04-20T01:43:42.448Z,8.05
2023-04-20T01:46:17.603Z,8.05
2023-04-20T01:48:49.947Z,8.06
2023-04-20T01:51:22.638Z,8.06
2023-04-20T01:53:54.861Z,8.09
2023-04-20T01:56:26.942Z,8.10
2023-04-20T01:58:59.420Z,8.15
2023-04-20T02:01:32.534Z,8.19
2023-04-20T02:04:06.284Z,8.24
2023-04-20T02:06:38.912Z,8.29
2023-04-20T02:09:16.188Z,8.31
2023-04-20T02:11:48.395Z,8.33
2023-04-20T02:14:20.544Z,8.33
2023-04-20T02:16:53.538Z,8.35
2023-04-20T02:19:26.094Z,8.34
2023-04-20T02:21:58.724Z,8.31
2023-04-20T02:24:31.944Z,8.29
2023-04-20T02:27:04.159Z,8.30
2023-04-20T02:29:37.956Z,8.31
2023-04-20T02:32:10.397Z,8.32
2023-04-20T02:34:42.706Z,8.33
2023-04-20T02:37:14.666Z,8.34
2023-04-20T02:39:47.444Z,8.38
2023-04-20T02:42:19.447Z,8.39
2023-04-20T02:44:53.746Z,8.39
2023-04-20T02:47:26.126Z,8.35
2023-04-20T02:49:58.833Z,8.31
2023-04-20T02:52:30.994Z,8.28
2023-04-20T02:55:03.829Z,8.23
2023-04-20T02:57:36.530Z,8.18
2023-04-20T03:00:14.088Z,8.15
2023-04-20T03:03:01.835Z,8.16
2023-04-20T03:05:34.711Z,8.17
2023-04-20T03:08:07.472Z,8.17
2023-04-20T03:10:40.046Z,8.16
2023-04-20T03:13:24.384Z,8.17
2023-04-20T03:16:01.988Z,8.15
2023-04-20T03:18:41.495Z,8.12
2023-04-20T03:21:15.298Z,8.09
2023-04-20T03:23:48.160Z,8.08
2023-04-20T03:26:20.703Z,8.06
2023-04-20T03:29:11.834Z,8.08
2023-04-20T03:31:44.909Z,8.10
2023-04-20T03:34:17.641Z,8.13
2023-04-20T03:36:50.236Z,8.14
2023-04-20T03:39:22.388Z,8.17
2023-04-20T03:41:57.671Z,8.16
2023-04-20T03:44:33.229Z,8.16
2023-04-20T03:47:05.644Z,8.23
2023-04-20T03:49:37.715Z,8.32
2023-04-20T03:52:09.978Z,8.35
2023-04-20T03:54:42.047Z,8.31
2023-04-20T03:57:15.093Z,8.23
2023-04-20T03:59:47.559Z,8.16
2023-04-20T04:02:23.085Z,8.12
2023-04-20T04:04:55.713Z,8.10
2023-04-20T04:07:28.280Z,8.15
2023-04-20T04:10:00.516Z,8.16
2023-04-20T04:12:35.678Z,8.10
2023-04-20T04:15:10.703Z,8.07
2023-04-20T04:17:49.763Z,8.04
2023-04-20T04:20:22.212Z,8.03
2023-04-20T04:22:55.773Z,8.04
2023-04-20T04:25:38.231Z,8.11
2023-04-20T04:28:11.061Z,8.17
2023-04-20T04:30:49.012Z,8.19
2023-04-20T04:33:22.090Z,8.23
2023-04-20T04:35:55.464Z,8.26
2023-04-20T04:38:27.982Z,8.31
2023-04-20T04:41:02.759Z,8.36
2023-04-20T04:43:35.731Z,8.43
2023-04-20T04:46:16.763Z,8.48
2023-04-20T04:48:49.514Z,8.54
2023-04-20T04:51:21.524Z,8.59
2023-04-20T04:53:55.037Z,8.66
2023-04-20T04:56:27.040Z,8.73
2023-04-20T04:58:59.412Z,8.80
2023-04-20T05:01:32.262Z,8.87
2023-04-20T05:04:05.056Z,8.96
2023-04-20T05:06:37.188Z,9.05
2023-04-20T05:09:09.588Z,9.13
2023-04-20T05:11:44.438Z,9.21
2023-04-20T05:14:16.498Z,9.31
2023-04-20T05:16:48.648Z,9.40
2023-04-20T05:19:21.232Z,9.50
2023-04-20T05:21:53.610Z,9.63
2023-04-20T05:24:25.912Z,9.95
2023-04-20T05:26:58.351Z,10.16
2023-04-20T05:29:31.003Z,10.38
2023-04-20T05:32:03.255Z,10.47
2023-04-20T05:34:36.204Z,10.48
2023-04-20T05:37:09.494Z,10.47
2023-04-20T05:39:41.610Z,10.50
2023-04-20T05:42:14.648Z,10.52
2023-04-20T05:44:49.897Z,10.56
2023-04-20T05:47:22.005Z,10.65
2023-04-20T05:49:54.111Z,10.90
2023-04-20T05:52:26.318Z,11.14
2023-04-20T05:54:59.644Z,11.30
2023-04-20T05:57:32.367Z,11.71
2023-04-20T06:00:08.353Z,12.20
2023-04-20T06:02:45.525Z,12.51
2023-04-20T06:05:17.589Z,12.64
2023-04-20T06:07:54.970Z,12.70
2023-04-20T06:10:27.793Z,12.75
2023-04-20T06:13:02.448Z,12.79
2023-04-20T06:15:35.333Z,12.78
2023-04-20T06:18:07.795Z,12.81
2023-04-20T06:20:40.605Z,12.89
2023-04-20T06:23:13.048Z,12.95
2023-04-20T06:25:45.792Z,13.03
2023-04-20T06:28:18.545Z,13.27
2023-04-20T06:30:51.042Z,13.46
2023-04-20T06:33:23.217Z,13.65
2023-04-20T06:35:56.848Z,13.73
2023-04-20T06:38:31.576Z,13.72
2023-04-20T06:41:03.454Z,13.83
2023-04-20T06:43:35.752Z,14.42
2023-04-20T06:46:08.046Z,15.20
2023-04-20T06:48:40.265Z,15.91
2023-04-20T06:51:16.208Z,16.30
2023-04-20T06:53:48.383Z,16.46
2023-04-20T06:56:20.890Z,16.65
2023-04-20T06:58:53.265Z,16.79
2023-04-20T07:01:25.320Z,17.08
2023-04-20T07:03:57.785Z,17.21
2023-04-20T07:06:31.905Z,17.28
2023-04-20T07:09:04.419Z,17.34
2023-04-20T07:11:36.411Z,17.47
2023-04-20T07:14:08.419Z,17.56
2023-04-20T07:16:40.589Z,17.58
2023-04-20T07:19:12.899Z,17.63
2023-04-20T07:21:45.416Z,17.70
2023-04-20T07:24:17.731Z,17.66
2023-04-20T07:26:49.852Z,17.54
2023-04-20T07:29:21.915Z,17.47
2023-04-20T07:31:54.378Z,17.30
2023-04-20T07:34:26.698Z,17.19
2023-04-20T07:36:59.066Z,17.13
2023-04-20T07:39:33.683Z,17.07
2023-04-20T07:42:07.182Z,17.07
2023-04-20T07:44:39.590Z,17.14
2023-04-20T07:47:11.631Z,17.18
2023-04-20T07:49:44.304Z,17.24
2023-04-20T07:52:17.517Z,17.23
2023-04-20T07:54:50.157Z,17.27
2023-04-20T07:57:22.356Z,17.35
2023-04-20T07:59:54.711Z,17.42
2023-04-20T08:02:26.806Z,17.51
2023-04-20T08:04:59.893Z,17.62
2023-04-20T08:07:36.446Z,17.79
2023-04-20T08:10:10.659Z,18.14
2023-04-20T08:12:43.155Z,18.44
2023-04-20T08:15:15.649Z,18.65
2023-04-20T08:17:47.942Z,18.83
2023-04-20T08:20:20.544Z,19.05
2023-04-20T08:22:53.817Z,19.16
2023-04-20T08:25:28.189Z,19.18
2023-04-20T08:28:02.884Z,19.26
2023-04-20T08:30:36.335Z,19.25
2023-04-20T08:33:08.496Z,19.24
2023-04-20T08:35:41.197Z,19.35
2023-04-20T08:38:17.949Z,19.54
2023-04-20T08:40:52.526Z,19.78
2023-04-20T08:43:25.367Z,19.96
2023-04-20T08:46:01.855Z,20.14
2023-04-20T08:48:37.334Z,20.54
2023-04-20T08:51:09.587Z,20.89
2023-04-20T08:53:41.667Z,21.03
2023-04-20T08:56:14.243Z,21.12
2023-04-20T08:58:47.466Z,21.16
2023-04-20T09:01:35.548Z,21.39
2023-04-20T09:04:18.798Z,21.60
2023-04-20T09:06:52.418Z,21.61
2023-04-20T09:09:27.191Z,21.40
2023-04-20T09:12:05.460Z,21.30
2023-04-20T09:14:48.197Z,21.11
2023-04-20T09:17:32.245Z,20.77
2023-04-20T09:20:05.421Z,20.23
2023-04-20T09:22:38.926Z,19.96
2023-04-20T09:25:19.404Z,20.10
2023-04-20T09:28:02.573Z,20.43
2023-04-20T09:30:42.415Z,20.40
2023-04-20T09:33:15.740Z,20.35
2023-04-20T09:35:48.322Z,20.47
2023-04-20T09:38:28.342Z,20.53
2023-04-20T09:41:02.292Z,20.47
2023-04-20T09:43:36.473Z,20.64
2023-04-20T09:46:08.876Z,20.80
2023-04-20T09:48:40.990Z,21.00
2023-04-20T09:51:13.979Z,21.11
2023-04-20T09:53:51.681Z,21.27
2023-04-20T09:56:25.917Z,21.36
2023-04-20T09:58:58.903Z,21.40
2023-04-20T10:01:36.471Z,21.60
2023-04-20T10:04:14.949Z,21.77
2023-04-20T10:06:58.370Z,21.78
2023-04-20T10:09:33.584Z,21.80
2023-04-20T10:12:14.017Z,21.67
2023-04-20T10:14:56.083Z,21.69
2023-04-20T10:17:36.179Z,21.81
2023-04-20T10:20:21.661Z,21.89
2023-04-20T10:23:09.767Z,21.88
2023-04-20T10:25:40.396Z,22.01
2023-04-20T10:28:12.772Z,21.72
2023-04-20T10:30:54.784Z,21.27
2023-04-20T10:33:26.873Z,20.75
2023-04-20T10:35:59.507Z,20.58
2023-04-20T10:38:36.728Z,20.69
2023-04-20T10:41:13.444Z,20.88
2023-04-20T10:43:46.502Z,21.07
2023-04-20T10:46:22.222Z,21.09
2023-04-20T10:48:56.528Z,20.89
2023-04-20T10:51:30.222Z,20.81
2023-04-20T10:54:07.849Z,20.96
2023-04-20T10:56:44.876Z,21.19
2023-04-20T10:59:18.482Z,21.41
2023-04-20T11:01:54.216Z,21.53
2023-04-20T11:04:37.352Z,21.71
2023-04-20T11:07:11.213Z,21.89
2023-04-20T11:09:43.655Z,22.09
2023-04-20T11:12:16.258Z,22.11
2023-04-20T11:14:56.305Z,22.04
2023-04-20T11:17:36.290Z,22.05
2023-04-20T11:20:12.311Z,22.25
2023-04-20T11:22:45.889Z,22.21
2023-04-20T11:25:18.336Z,21.94
2023-04-20T11:27:53.294Z,21.89
2023-04-20T11:30:25.659Z,22.03
2023-04-20T11:32:58.029Z,22.11
2023-04-20T11:35:37.323Z,22.19
2023-04-20T11:38:10.767Z,22.39
2023-04-20T11:40:43.557Z,22.28
2023-04-20T11:43:15.817Z,21.99
2023-04-20T11:45:48.344Z,21.79
2023-04-20T11:48:20.839Z,21.64
2023-04-20T11:50:52.838Z,21.68
2023-04-20T11:53:25.676Z,21.88
2023-04-20T11:55:57.625Z,22.16
2023-04-20T11:58:32.213Z,22.26
2023-04-20T12:01:05.000Z,22.33
2023-04-20T12:03:37.557Z,22.46
2023-04-20T12:06:10.004Z,22.59
2023-04-20T12:08:43.310Z,22.70
2023-04-20T12:11:17.825Z,22.65
2023-04-20T12:13:50.093Z,22.66
2023-04-20T12:16:22.470Z,22.63
2023-04-20T12:18:54.814Z,22.56
2023-04-20T12:21:27.570Z,22.56
2023-04-20T12:23:59.868Z,22.25
2023-04-20T12:26:38.392Z,21.90
2023-04-20T12:29:14.279Z,21.76
2023-04-20T12:31:46.771Z,21.70
2023-04-20T12:34:19.284Z,21.56
2023-04-20T12:36:51.576Z,21.40
2023-04-20T12:39:23.713Z,21.22
2023-04-20T12:41:58.656Z,21.03
2023-04-20T12:44:33.411Z,20.74
2023-04-20T12:47:08.479Z,20.44
2023-04-20T12:49:40.864Z,20.20
2023-04-20T12:52:13.263Z,20.04
2023-04-20T12:54:46.686Z,19.85
2023-04-20T12:57:18.917Z,19.64
2023-04-20T12:59:51.772Z,19.44
2023-04-20T13:02:24.405Z,19.30
2023-04-20T13:04:56.893Z,19.18
2023-04-20T13:07:31.009Z,19.13
2023-04-20T13:10:03.897Z,19.16
2023-04-20T13:12:36.133Z,19.32
2023-04-20T13:15:10.895Z,19.54
2023-04-20T13:17:42.983Z,19.79
2023-04-20T13:20:15.856Z,20.07
2023-04-20T13:22:57.604Z,20.30
2023-04-20T13:25:34.694Z,20.41
2023-04-20T13:28:07.762Z,20.41
2023-04-20T13:30:39.905Z,20.41
2023-04-20T13:33:12.104Z,20.48
2023-04-20T13:35:44.510Z,20.56
2023-04-20T13:38:18.966Z,20.62
2023-04-20T13:40:51.230Z,20.63
2023-04-20T13:43:23.476Z,20.64
2023-04-20T13:45:55.940Z,20.56
2023-04-20T13:48:28.176Z,20.34
2023-04-20T13:51:02.710Z,20.16
2023-04-20T13:53:35.721Z,20.01
2023-04-20T13:56:09.094Z,19.88
2023-04-20T13:58:41.075Z,19.80
2023-04-20T14:01:15.724Z,19.76
2023-04-20T14:03:47.853Z,19.71
2023-04-20T14:06:21.018Z,19.59
2023-04-20T14:08:53.107Z,19.45
2023-04-20T14:11:25.696Z,19.47
2023-04-20T14:13:57.692Z,19.62
2023-04-20T14:16:30.332Z,19.79
2023-04-20T14:19:03.055Z,19.86
2023-04-20T14:21:36.023Z,19.91
2023-04-20T14:24:08.605Z,19.93
2023-04-20T14:26:45.255Z,19.83
2023-04-20T14:29:20.231Z,19.72
2023-04-20T14:31:52.927Z,19.58
2023-04-20T14:34:25.627Z,19.41
2023-04-20T14:36:57.711Z,19.29
2023-04-20T14:39:32.034Z,19.18
2023-04-20T14:42:04.131Z,19.09
2023-04-20T14:44:36.323Z,18.99
2023-04-20T14:47:08.751Z,18.91
2023-04-20T14:49:41.105Z,18.91
2023-04-20T14:52:13.372Z,18.98
2023-04-20T14:54:46.195Z,19.10
2023-04-20T14:57:18.462Z,19.17
2023-04-20T14:59:50.546Z,19.18
2023-04-20T15:02:23.170Z,19.18
2023-04-20T15:04:55.570Z,19.16
2023-04-20T15:07:28.732Z,19.09
2023-04-20T15:10:05.850Z,19.02
2023-04-20T15:12:38.518Z,18.93
2023-04-20T15:15:12.310Z,18.82
2023-04-20T15:17:45.867Z,18.74
2023-04-20T15:20:18.419Z,18.66
2023-04-20T15:22:51.024Z,18.59
2023-04-20T15:25:23.605Z,18.50
2023-04-20T15:27:56.375Z,18.43
2023-04-20T15:30:28.848Z,18.37
2023-04-20T15:33:04.804Z,18.28
2023-04-20T15:35:37.872Z,18.19
2023-04-20T15:38:10.652Z,18.17
2023-04-20T15:40:43.244Z,18.17
2023-04-20T15:43:16.019Z,18.18
2023-04-20T15:45:48.211Z,18.22
2023-04-20T15:48:20.459Z,18.28
2023-04-20T15:50:54.537Z,18.33
2023-04-20T15:53:26.972Z,18.39
2023-04-20T15:55:59.213Z,18.38
2023-04-20T15:58:31.373Z,18.35
2023-04-20T16:01:04.033Z,18.32
2023-04-20T16:03:36.654Z,18.27
2023-04-20T16:06:09.545Z,18.19
2023-04-20T16:08:45.440Z,18.09
2023-04-20T16:11:18.644Z,18.01
2023-04-20T16:13:51.320Z,17.96
2023-04-20T16:16:23.247Z,17.91
2023-04-20T16:18:55.871Z,17.84
2023-04-20T16:21:28.230Z,17.82
2023-04-20T16:24:03.438Z,17.81
2023-04-20T16:26:36.276Z,17.79
2023-04-20T16:29:09.072Z,17.77
2023-04-20T16:31:42.085Z,17.74
2023-04-20T16:34:14.390Z,17.72
2023-04-20T16:36:46.619Z,17.66
2023-04-20T16:39:19.260Z,17.55
2023-04-20T16:41:51.533Z,17.44
2023-04-20T16:44:24.044Z,17.33
2023-04-20T16:46:56.195Z,17.22
2023-04-20T16:49:29.273Z,17.10
2023-04-20T16:52:04.626Z,16.98
2023-04-20T16:54:37.593Z,16.88
2023-04-20T16:57:10.068Z,16.77
2023-04-20T16:59:44.615Z,16.67
2023-04-20T17:02:18.280Z,16.56
2023-04-20T17:04:50.886Z,16.45
2023-04-20T17:07:23.222Z,16.36
2023-04-20T17:09:55.452Z,16.23
2023-04-20T17:12:27.954Z,16.15
2023-04-20T17:15:00.945Z,16.07
2023-04-20T17:17:35.068Z,15.98
2023-04-20T17:20:10.567Z,15.85
2023-04-20T17:22:42.720Z,15.74
2023-04-20T17:25:15.193Z,15.62
2023-04-20T17:27:47.348Z,15.52
2023-04-20T17:30:21.199Z,15.41
2023-04-20T17:32:54.185Z,15.30
2023-04-20T17:35:27.825Z,15.18
2023-04-20T17:38:01.177Z,15.09
2023-04-20T17:40:34.889Z,14.96
2023-04-20T17:43:07.055Z,14.83
2023-04-20T17:45:39.790Z,14.68
2023-04-20T17:48:12.098Z,14.55
2023-04-20T17:50:44.291Z,14.41
2023-04-20T17:53:16.418Z,14.27
2023-04-20T17:55:48.872Z,14.21
2023-04-20T17:58:20.932Z,14.14
2023-04-20T18:00:53.864Z,14.08
2023-04-20T18:03:26.713Z,14.03
2023-04-20T18:05:58.962Z,13.96
2023-04-20T18:08:31.478Z,13.90
2023-04-20T18:11:05.862Z,13.85
2023-04-20T18:13:38.353Z,13.76
2023-04-20T18:16:11.000Z,13.69
2023-04-20T18:18:43.524Z,13.62
2023-04-20T18:21:16.512Z,13.56
2023-04-20T18:23:49.304Z,13.47
2023-04-20T18:26:22.546Z,13.36
2023-04-20T18:28:54.743Z,13.25
2023-04-20T18:31:27.850Z,13.12
2023-04-20T18:34:03.103Z,12.97
2023-04-20T18:36:36.218Z,12.82
2023-04-20T18:39:09.740Z,12.67
2023-04-20T18:41:43.375Z,12.55
2023-04-20T18:44:16.131Z,12.43
2023-04-20T18:46:48.537Z,12.33
2023-04-20T18:49:20.757Z,12.24
2023-04-20T18:51:53.033Z,12.18
2023-04-20T18:54:25.362Z,12.22
2023-04-20T18:56:58.520Z,12.24
2023-04-20T18:59:31.343Z,12.24
2023-04-20T19:02:03.651Z,12.25
2023-04-20T19:04:36.403Z,12.23
2023-04-20T19:07:09.022Z,12.23
2023-04-20T19:09:41.071Z,12.23
2023-04-20T19:12:13.497Z,12.23
2023-04-20T19:14:49.000Z,12.20
2023-04-20T19:17:21.897Z,12.16
2023-04-20T19:19:55.492Z,12.10
2023-04-20T19:22:27.797Z,11.99
2023-04-20T19:25:00.025Z,11.87
2023-04-20T19:27:34.836Z,11.76
2023-04-20T19:30:08.547Z,11.68
2023-04-20T19:32:41.034Z,11.59
2023-04-20T19:35:13.135Z,11.48
2023-04-20T19:37:45.856Z,11.36
2023-04-20T19:40:19.921Z,11.24
2023-04-20T19:42:52.733Z,11.10
2023-04-20T19:45:28.826Z,10.98
2023-04-20T19:48:04.844Z,10.88
2023-04-20T19:50:37.132Z,10.81
2023-04-20T19:53:09.726Z,10.71
2023-04-20T19:55:42.094Z,10.64
2023-04-20T19:58:16.050Z,10.56
2023-04-20T20:00:48.572Z,10.47
2023-04-20T20:03:20.916Z,10.43
2023-04-20T20:05:53.082Z,10.42
2023-04-20T20:08:25.532Z,10.42
2023-04-20T20:10:58.080Z,10.44
2023-04-20T20:13:32.931Z,10.44
2023-04-20T20:16:05.555Z,10.46
2023-04-20T20:18:38.414Z,10.49
2023-04-20T20:21:10.934Z,10.50
2023-04-20T20:23:43.497Z,10.52
2023-04-20T20:26:16.675Z,10.55
2023-04-20T20:28:50.314Z,10.56
2023-04-20T20:31:22.468Z,10.58
2023-04-20T20:33:56.252Z,10.59
2023-04-20T20:36:32.161Z,10.59
2023-04-20T20:39:05.492Z,10.64
2023-04-20T20:41:37.637Z,10.69
2023-04-20T20:44:12.284Z,10.72
2023-04-20T20:46:44.688Z,10.71
2023-04-20T20:49:16.968Z,10.68
2023-04-20T20:51:49.150Z,10.66
2023-04-20T20:54:21.535Z,10.65
2023-04-20T20:56:53.552Z,10.66
2023-04-20T20:59:26.520Z,10.67
2023-04-20T21:01:58.950Z,10.70
2023-04-20T21:04:32.934Z,10.74
2023-04-20T21:07:05.183Z,10.79
2023-04-20T21:09:37.276Z,10.82
2023-04-20T21:12:09.624Z,10.84
2023-04-20T21:14:42.316Z,10.87
2023-04-20T21:17:14.466Z,10.90
2023-04-20T21:19:46.925Z,10.95
2023-04-20T21:22:20.226Z,10.98
2023-04-20T21:24:52.509Z,10.98
2023-04-20T21:27:25.023Z,10.99
2023-04-20T21:29:57.256Z,11.00
2023-04-20T21:32:29.690Z,11.04
2023-04-20T21:35:02.077Z,11.07
2023-04-20T21:37:34.225Z,11.07
2023-04-20T21:40:07.971Z,11.09
2023-04-20T21:42:40.184Z,11.09
2023-04-20T21:45:14.075Z,11.08
2023-04-20T21:47:46.252Z,11.06
2023-04-20T21:50:19.034Z,11.05
2023-04-20T21:52:51.384Z,11.03
2023-04-20T21:55:23.834Z,11.02
2023-04-20T21:57:56.049Z,11.02
2023-04-20T22:00:28.384Z,11.04
2023-04-20T22:03:03.287Z,11.03
2023-04-20T22:05:35.892Z,11.02
2023-04-20T22:08:07.964Z,10.99
2023-04-20T22:10:40.100Z,10.95
2023-04-20T22:13:13.470Z,10.90
2023-04-20T22:15:47.442Z,10.85
2023-04-20T22:18:19.765Z,10.83
2023-04-20T22:20:54.262Z,10.80
2023-04-20T22:23:27.158Z,10.77
2023-04-20T22:25:59.628Z,10.74
2023-04-20T22:28:33.111Z,10.71
2023-04-20T22:31:05.433Z,10.68
2023-04-20T22:33:37.693Z,10.63
2023-04-20T22:36:12.194Z,10.57
2023-04-20T22:38:44.283Z,10.53
2023-04-20T22:41:17.641Z,10.51
2023-04-20T22:43:49.995Z,10.50
2023-04-20T22:46:22.562Z,10.47
2023-04-20T22:48:56.792Z,10.44
2023-04-20T22:51:29.160Z,10.42
2023-04-20T22:54:02.798Z,10.39
2023-04-20T22:56:36.921Z,10.36
2023-04-20T22:59:09.429Z,10.35
2023-04-20T23:01:41.539Z,10.34
2023-04-20T23:04:13.852Z,10.32
2023-04-20T23:06:47.390Z,10.28
2023-04-20T23:09:20.957Z,10.25
2023-04-20T23:11:54.020Z,10.23
2023-04-20T23:14:26.156Z,10.19
2023-04-20T23:17:00.159Z,10.16
2023-04-20T23:19:34.772Z,10.15
2023-04-20T23:22:09.068Z,10.12
2023-04-20T23:24:41.407Z,10.09
2023-04-20T23:27:13.956Z,10.07
2023-04-20T23:29:46.083Z,10.06
2023-04-20T23:32:18.220Z,10.03
2023-04-20T23:34:50.679Z,9.99
2023-04-20T23:37:22.891Z,9.94
2023-04-20T23:39:55.027Z,9.88
2023-04-20T23:42:27.396Z,9.85
2023-04-20T23:44:59.872Z,9.82
2023-04-20T23:47:32.536Z,9.80
2023-04-20T23:50:05.059Z,9.80
2023-04-20T23:52:37.287Z,9.80
2023-04-20T23:55:10.907Z,9.78
2023-04-20T23:57:43.084Z,9.77
